Time;durP1;ratioP1;P1;durP2;ratioP2;P2;SDS_P1;SDS_P2;PMS_P1;PMS_P2;Temp;Humidity;BMP_temperature;BMP_pressure;BME280_temperature;BME280_humidity;BME280_pressure;Samples;Min_cycle;Max_cycle;Signal;HPM_P1;HPM_P2
2022/08/19 00:01:46;;;;;;;1999.90;999.90;;;17.90;99.90;;;;;;4969773;28;20073;-82
2022/08/19 00:04:14;;;;;;;1999.90;999.90;;;17.90;99.90;;;;;;4968992;28;20030;-82
2022/08/19 00:06:41;;;;;;;1999.90;999.90;;;17.90;99.90;;;;;;4969389;28;20031;-82
2022/08/19 00:09:11;;;;;;;1999.90;999.90;;;17.90;99.90;;;;;;4953069;28;20114;-81
2022/08/19 00:11:38;;;;;;;1999.90;999.90;;;17.90;99.90;;;;;;4970428;28;20019;-82
2022/08/19 00:14:05;;;;;;;1999.90;999.90;;;17.90;99.90;;;;;;4952751;28;20083;-82
2022/08/19 00:16:32;;;;;;;1999.90;999.90;;;18.00;99.90;;;;;;4953450;28;20031;-82
2022/08/19 00:18:58;;;;;;;1999.90;999.90;;;17.90;99.90;;;;;;4952503;28;20142;-82
2022/08/19 00:21:26;;;;;;;1999.90;999.90;;;17.90;99.90;;;;;;4970447;28;20127;-82
2022/08/19 00:23:53;;;;;;;1999.90;999.90;;;17.90;99.90;;;;;;4968732;28;20031;-82
2022/08/19 00:26:19;;;;;;;1999.90;999.90;;;18.00;99.90;;;;;;4968960;28;20514;-82
2022/08/19 00:28:44;;;;;;;1999.90;999.90;;;17.80;99.90;;;;;;4970205;28;20031;-82
2022/08/19 00:31:10;;;;;;;1999.90;999.90;;;17.80;99.90;;;;;;4952192;28;20091;-82
2022/08/19 00:33:36;;;;;;;1999.90;999.90;;;17.80;99.90;;;;;;4969781;28;20061;-82
2022/08/19 00:36:06;;;;;;;1999.90;999.90;;;17.90;99.90;;;;;;4968804;28;20034;-82
2022/08/19 00:38:33;;;;;;;1999.90;999.90;;;17.80;99.90;;;;;;4966542;28;20064;-82
2022/08/19 00:40:59;;;;;;;1999.90;999.90;;;17.80;99.90;;;;;;4952241;28;20105;-82
2022/08/19 00:43:26;;;;;;;1999.90;999.90;;;17.60;99.90;;;;;;4951973;28;20102;-82
2022/08/19 00:45:52;;;;;;;1999.90;999.90;;;17.50;99.90;;;;;;4970160;28;20053;-82
2022/08/19 00:48:20;;;;;;;1999.90;999.90;;;17.30;99.90;;;;;;4952582;28;20049;-82
2022/08/19 00:50:48;;;;;;;1999.90;999.90;;;17.20;99.90;;;;;;4966467;28;20033;-81
2022/08/19 00:53:18;;;;;;;1999.90;999.90;;;17.20;99.90;;;;;;4951320;28;20395;-82
2022/08/19 00:55:50;;;;;;;1999.90;999.90;;;17.10;99.90;;;;;;4953108;28;20031;-82
2022/08/19 00:58:19;;;;;;;1999.90;999.90;;;17.00;99.90;;;;;;4966210;28;20038;-82
2022/08/19 01:00:46;;;;;;;1999.90;999.90;;;17.00;99.90;;;;;;4969005;28;20035;-82
2022/08/19 01:03:16;;;;;;;1999.90;999.90;;;17.00;99.90;;;;;;4968587;28;20030;-82
2022/08/19 01:05:44;;;;;;;1999.90;999.90;;;16.90;99.90;;;;;;4968637;28;20026;-82
2022/08/19 01:08:11;;;;;;;1999.90;999.90;;;17.00;99.90;;;;;;4969561;28;20546;-82
2022/08/19 01:10:59;;;;;;;1999.90;999.90;;;16.90;99.90;;;;;;4970124;28;20213;-82
2022/08/19 01:13:28;;;;;;;1999.90;999.90;;;16.80;99.90;;;;;;4951804;28;20031;-82
2022/08/19 01:16:02;;;;;;;1999.90;999.90;;;16.90;99.90;;;;;;4961585;28;20057;-82
2022/08/19 01:18:30;;;;;;;1999.90;999.90;;;16.80;99.90;;;;;;4971786;28;20105;-82
2022/08/19 01:20:58;;;;;;;1999.90;999.90;;;16.80;99.90;;;;;;4972791;28;20039;-82
2022/08/19 01:23:42;;;;;;;1999.90;999.90;;;16.80;99.90;;;;;;4973015;28;20403;-82
2022/08/19 01:26:09;;;;;;;1999.90;999.90;;;16.70;99.90;;;;;;4958717;28;20070;-82
2022/08/19 01:28:36;;;;;;;1999.90;999.90;;;16.70;99.90;;;;;;4973096;28;20038;-82
2022/08/19 01:31:03;;;;;;;1999.90;999.90;;;16.70;99.90;;;;;;4966878;28;20137;-82
2022/08/19 01:33:30;;;;;;;1999.90;999.90;;;16.70;99.90;;;;;;4971832;28;20027;-82
2022/08/19 01:36:04;;;;;;;1999.90;999.90;;;16.70;99.90;;;;;;4980236;28;20015;-82
2022/08/19 01:38:31;;;;;;;1999.90;999.90;;;16.70;99.90;;;;;;4966354;28;20487;-82
2022/08/19 01:40:57;;;;;;;1999.90;999.90;;;16.70;99.90;;;;;;4976595;28;20031;-82
2022/08/19 01:43:22;;;;;;;1999.90;999.90;;;16.70;99.90;;;;;;4957947;28;20034;-82
2022/08/19 01:45:48;;;;;;;1999.90;999.90;;;16.70;99.90;;;;;;4954923;28;20059;-82
2022/08/19 01:48:15;;;;;;;1999.90;999.90;;;16.60;99.90;;;;;;4972450;28;20498;-82
2022/08/19 01:50:41;;;;;;;1999.90;999.90;;;16.60;99.90;;;;;;4972748;28;20049;-82
2022/08/19 01:53:10;;;;;;;1999.90;999.90;;;16.40;99.90;;;;;;4973063;28;20035;-82
2022/08/19 01:55:39;;;;;;;1999.90;999.90;;;16.40;99.90;;;;;;4971657;28;20030;-82
2022/08/19 01:58:07;;;;;;;1999.90;999.90;;;16.40;99.90;;;;;;4953529;28;20034;-82
2022/08/19 02:00:33;;;;;;;1999.90;999.90;;;16.30;99.90;;;;;;4970266;28;20030;-83
2022/08/19 02:03:00;;;;;;;1999.90;999.90;;;16.30;99.90;;;;;;4939078;28;20035;-82
2022/08/19 02:05:27;;;;;;;1999.90;999.90;;;16.20;99.90;;;;;;4972680;28;20113;-82
2022/08/19 02:07:52;;;;;;;1999.90;999.90;;;16.20;99.90;;;;;;4970968;28;20039;-82
2022/08/19 02:10:21;;;;;;;1999.90;999.90;;;16.20;99.90;;;;;;4954733;28;20050;-82
2022/08/19 02:12:46;;;;;;;1999.90;999.90;;;16.20;99.90;;;;;;4972626;28;20151;-82
2022/08/19 02:15:13;;;;;;;1999.90;999.90;;;16.30;99.90;;;;;;4971989;28;20145;-82
2022/08/19 02:17:39;;;;;;;1999.90;999.90;;;16.20;99.90;;;;;;4954520;28;20513;-82
2022/08/19 02:20:06;;;;;;;1999.90;999.90;;;16.40;99.90;;;;;;4954433;28;20070;-82
2022/08/19 02:22:32;;;;;;;1999.90;999.90;;;16.30;99.90;;;;;;4972228;28;20046;-82
2022/08/19 02:24:58;;;;;;;1999.90;999.90;;;16.80;99.90;;;;;;4953978;28;20034;-82
2022/08/19 02:27:25;;;;;;;1999.90;999.90;;;18.00;99.90;;;;;;4972001;28;20114;-82
2022/08/19 02:29:51;;;;;;;1999.90;999.90;;;17.70;99.90;;;;;;4971198;28;20109;-82
2022/08/19 02:32:19;;;;;;;1999.90;999.90;;;17.40;99.90;;;;;;4970965;28;20133;-81
2022/08/19 02:34:46;;;;;;;1999.90;999.90;;;17.30;99.90;;;;;;4954268;28;20105;-81
2022/08/19 02:38:25;;;;;;;1999.90;999.90;;;17.50;99.90;;;;;;4938095;28;20396;-82
2022/08/19 02:39:58;;;;;;;1999.90;999.90;;;17.60;99.90;;;;;;4971761;28;20043;-82
2022/08/19 02:42:24;;;;;;;1999.90;999.90;;;17.70;99.90;;;;;;4970170;28;20031;-82
2022/08/19 02:44:51;;;;;;;1999.90;999.90;;;17.80;99.90;;;;;;4954514;28;20157;-82
2022/08/19 02:47:18;;;;;;;1999.90;999.90;;;17.70;99.90;;;;;;4954192;28;20082;-82
2022/08/19 02:49:44;;;;;;;1999.90;999.90;;;17.70;99.90;;;;;;4971583;28;20049;-82
2022/08/19 02:52:11;;;;;;;1999.90;999.90;;;17.70;99.90;;;;;;4968220;28;20022;-82
2022/08/19 02:54:37;;;;;;;1999.90;999.90;;;17.70;99.90;;;;;;4970116;28;20031;-82
2022/08/19 02:57:03;;;;;;;1999.90;999.90;;;17.90;99.90;;;;;;4954040;28;20035;-82
2022/08/19 02:59:32;;;;;;;1999.90;999.90;;;17.70;99.90;;;;;;4971473;28;20049;-82
2022/08/19 03:01:58;;;;;;;1999.90;999.90;;;17.80;99.90;;;;;;4970616;28;20180;-82
2022/08/19 03:04:24;;;;;;;1999.90;999.90;;;17.90;99.90;;;;;;4971219;28;20059;-82
2022/08/19 03:06:50;;;;;;;1999.90;999.90;;;17.80;99.90;;;;;;4971266;28;20031;-82
2022/08/19 03:09:17;;;;;;;1999.90;999.90;;;17.60;99.90;;;;;;4968968;28;20043;-82
2022/08/19 03:11:43;;;;;;;1999.90;999.90;;;17.90;99.90;;;;;;4969796;28;20027;-82
2022/08/19 03:14:09;;;;;;;1999.90;999.90;;;18.00;99.90;;;;;;4971367;28;20505;-82
2022/08/19 03:16:45;;;;;;;1999.90;999.90;;;18.10;99.90;;;;;;4971024;28;20084;-82
2022/08/19 03:19:12;;;;;;;1999.90;999.90;;;17.80;99.90;;;;;;4952129;28;20058;-82
2022/08/19 03:21:37;;;;;;;1999.90;999.90;;;18.10;99.90;;;;;;4970959;28;20026;-82
2022/08/19 03:24:07;;;;;;;1999.90;999.90;;;18.00;99.90;;;;;;4937438;28;20034;-82
2022/08/19 03:26:33;;;;;;;1999.90;999.90;;;18.10;99.90;;;;;;4970868;28;20022;-82
2022/08/19 03:29:03;;;;;;;1999.90;999.90;;;18.20;99.90;;;;;;4970501;28;20039;-82
2022/08/19 03:31:28;;;;;;;1999.90;999.90;;;18.10;99.90;;;;;;4964825;28;20071;-82
2022/08/19 03:33:54;;;;;;;1999.90;999.90;;;17.90;99.90;;;;;;4969351;28;20062;-82
2022/08/19 03:36:25;;;;;;;1999.90;999.90;;;17.90;99.90;;;;;;4937365;28;20510;-82
2022/08/19 03:38:58;;;;;;;1999.90;999.90;;;18.10;99.90;;;;;;4952747;28;20695;-82
2022/08/19 03:41:31;;;;;;;1999.90;999.90;;;17.90;99.90;;;;;;4968031;28;20134;-82
2022/08/19 03:43:57;;;;;;;1999.90;999.90;;;17.80;99.90;;;;;;4970434;28;20046;-82
2022/08/19 03:46:26;;;;;;;1999.90;999.90;;;17.80;99.90;;;;;;4970305;28;20063;-82
2022/08/19 03:48:54;;;;;;;1999.90;999.90;;;17.80;99.90;;;;;;4970574;28;20113;-82
2022/08/19 03:51:21;;;;;;;1999.90;999.90;;;17.70;99.90;;;;;;4970077;28;20031;-82
2022/08/19 03:53:47;;;;;;;1999.90;999.90;;;17.70;99.90;;;;;;4970620;28;20089;-82
2022/08/19 03:56:14;;;;;;;1999.90;999.90;;;17.90;99.90;;;;;;4970298;28;20110;-82
2022/08/19 03:58:40;;;;;;;1999.90;999.90;;;17.80;99.90;;;;;;4970578;28;20018;-82
2022/08/19 04:01:11;;;;;;;1999.90;999.90;;;17.80;99.90;;;;;;4970293;28;20023;-82
2022/08/19 04:03:37;;;;;;;1999.90;999.90;;;17.90;99.90;;;;;;4953893;28;20047;-82
2022/08/19 04:06:20;;;;;;;1999.90;999.90;;;17.90;99.90;;;;;;4976934;28;20034;-82
2022/08/19 04:08:48;;;;;;;1999.90;999.90;;;17.90;99.90;;;;;;4961522;28;20038;-80
2022/08/19 04:11:20;;;;;;;1999.90;999.90;;;18.00;99.90;;;;;;4956297;28;20030;-82
2022/08/19 04:13:46;;;;;;;1999.90;999.90;;;18.00;99.90;;;;;;4973425;28;20518;-82
2022/08/19 04:16:11;;;;;;;1999.90;999.90;;;18.00;99.90;;;;;;4970565;28;20054;-82
2022/08/19 04:18:38;;;;;;;1999.90;999.90;;;18.00;99.90;;;;;;4953105;28;20035;-82
2022/08/19 04:21:05;;;;;;;1999.90;999.90;;;18.10;99.90;;;;;;4968986;28;20031;-82
2022/08/19 04:23:32;;;;;;;1999.90;999.90;;;18.10;99.90;;;;;;4970288;28;20035;-82
2022/08/19 04:25:58;;;;;;;1999.90;999.90;;;18.10;99.90;;;;;;4968839;28;20129;-82
2022/08/19 04:28:25;;;;;;;1999.90;999.90;;;18.10;99.90;;;;;;4969117;28;20477;-82
2022/08/19 04:30:52;;;;;;;1999.90;999.90;;;18.10;99.90;;;;;;4950526;28;20059;-82
2022/08/19 04:33:22;;;;;;;1999.90;999.90;;;18.20;99.90;;;;;;4969926;28;20038;-82
2022/08/19 04:35:49;;;;;;;1999.90;999.90;;;18.10;99.90;;;;;;4966889;28;20042;-82
2022/08/19 04:38:18;;;;;;;1999.90;999.90;;;18.30;99.90;;;;;;4952584;28;20133;-82
2022/08/19 04:43:32;;;;;;;1999.90;999.90;;;18.00;99.90;;;;;;4970421;28;20042;-82
2022/08/19 04:45:58;;;;;;;1999.90;999.90;;;18.10;99.90;;;;;;4968649;28;20062;-82
2022/08/19 04:48:26;;;;;;;1999.90;999.90;;;18.00;99.90;;;;;;4969991;28;20038;-82
2022/08/19 04:50:57;;;;;;;1999.90;999.90;;;18.10;99.90;;;;;;4952757;28;20031;-82
2022/08/19 04:53:28;;;;;;;1999.90;999.90;;;18.10;99.90;;;;;;4939632;28;20084;-82
2022/08/19 04:55:55;;;;;;;1999.90;999.90;;;18.00;99.90;;;;;;4956965;28;20038;-82
2022/08/19 04:58:20;;;;;;;1999.90;999.90;;;18.10;99.90;;;;;;4973369;28;20034;-82
2022/08/19 05:00:46;;;;;;;1999.90;999.90;;;18.10;99.90;;;;;;4956045;28;20027;-82
2022/08/19 05:03:12;;;;;;;1999.90;999.90;;;17.80;99.90;;;;;;4973592;28;20398;-82
2022/08/19 05:05:43;;;;;;;1999.90;999.90;;;17.60;99.90;;;;;;4971972;28;20049;-82
2022/08/19 05:08:09;;;;;;;1999.90;999.90;;;17.20;99.90;;;;;;4968191;28;20074;-82
2022/08/19 05:10:36;;;;;;;1999.90;999.90;;;17.00;99.90;;;;;;4973148;28;20111;-82
2022/08/19 05:13:02;;;;;;;1999.90;999.90;;;17.10;99.90;;;;;;4971933;28;20038;-82
2022/08/19 05:15:28;;;;;;;1999.90;999.90;;;17.10;99.90;;;;;;4956141;28;20046;-82
2022/08/19 05:23:23;;;;;;;1999.90;999.90;;;17.20;99.90;;;;;;4971948;28;20125;-82
2022/08/19 05:25:50;;;;;;;1999.90;999.90;;;17.30;99.90;;;;;;4973056;28;20058;-83
2022/08/19 05:28:15;;;;;;;1999.90;999.90;;;17.40;99.90;;;;;;4972785;28;20113;-82
2022/08/19 05:30:44;;;;;;;1999.90;999.90;;;17.30;99.90;;;;;;4970163;28;20138;-81
2022/08/19 05:33:11;;;;;;;1999.90;999.90;;;17.30;99.90;;;;;;4956128;28;20034;-82
2022/08/19 05:35:39;;;;;;;1999.90;999.90;;;17.40;99.90;;;;;;4971961;28;20031;-82
2022/08/19 05:38:07;;;;;;;1999.90;999.90;;;17.50;99.90;;;;;;4972507;28;20027;-82
2022/08/19 05:40:35;;;;;;;1999.90;999.90;;;17.40;99.90;;;;;;4971383;28;20039;-82
2022/08/19 05:43:03;;;;;;;1999.90;999.90;;;17.50;99.90;;;;;;4966198;28;20061;-82
2022/08/19 05:45:29;;;;;;;1999.90;999.90;;;17.50;99.90;;;;;;4954890;28;20490;-82
2022/08/19 05:47:54;;;;;;;1999.90;999.90;;;17.40;99.90;;;;;;4955401;28;20031;-83
2022/08/19 05:50:20;;;;;;;1999.90;999.90;;;17.30;99.90;;;;;;4972387;28;20039;-82
2022/08/19 05:52:46;;;;;;;1999.90;999.90;;;17.10;99.90;;;;;;4955038;28;20045;-82
2022/08/19 05:55:12;;;;;;;1999.90;999.90;;;17.30;99.90;;;;;;4970660;28;20026;-82
2022/08/19 05:57:38;;;;;;;1999.90;999.90;;;17.30;99.90;;;;;;4954294;28;20130;-82
2022/08/19 06:00:09;;;;;;;1999.90;999.90;;;17.50;99.90;;;;;;4954041;28;20066;-82
2022/08/19 06:02:35;;;;;;;1999.90;999.90;;;17.60;99.90;;;;;;4969509;28;20046;-82
2022/08/19 06:05:02;;;;;;;1999.90;999.90;;;17.40;99.90;;;;;;4954093;28;20097;-82
2022/08/19 06:07:29;;;;;;;1999.90;999.90;;;17.40;99.90;;;;;;4968220;28;20043;-82
2022/08/19 06:09:55;;;;;;;1999.90;999.90;;;17.50;99.90;;;;;;4954113;28;20031;-82
2022/08/19 06:12:26;;;;;;;1999.90;999.90;;;17.50;99.90;;;;;;4971385;28;20402;-82
2022/08/19 06:14:54;;;;;;;1999.90;999.90;;;17.50;99.90;;;;;;4971410;28;20027;-82
2022/08/19 06:17:24;;;;;;;1999.90;999.90;;;17.40;99.90;;;;;;4970680;28;20038;-82
2022/08/19 06:19:50;;;;;;;1999.90;999.90;;;17.40;99.90;;;;;;4955375;28;20023;-82
2022/08/19 06:22:16;;;;;;;1999.90;999.90;;;17.30;99.90;;;;;;4973541;28;20532;-81
2022/08/19 06:24:42;;;;;;;1999.90;999.90;;;17.30;99.90;;;;;;4954186;28;20046;-83
2022/08/19 06:27:08;;;;;;;1999.90;999.90;;;17.20;99.90;;;;;;4970755;28;20050;-82
2022/08/19 06:29:34;;;;;;;1999.90;999.90;;;17.10;99.90;;;;;;4970737;28;20030;-82
2022/08/19 06:32:02;;;;;;;1999.90;999.90;;;17.10;99.90;;;;;;4939151;29;20051;-82
2022/08/19 06:34:30;;;;;;;1999.90;999.90;;;17.20;99.90;;;;;;4941448;29;20479;-82
2022/08/19 06:37:01;;;;;;;1999.90;999.90;;;17.00;99.90;;;;;;4937175;29;20024;-83
2022/08/19 06:39:35;;;;;;;1999.90;999.90;;;17.20;99.90;;;;;;4953509;29;20093;-82
2022/08/19 06:42:06;;;;;;;1999.90;999.90;;;17.30;99.90;;;;;;4949436;29;20534;-82
2022/08/19 06:44:34;;;;;;;1999.90;999.90;;;17.50;99.90;;;;;;4952208;29;20027;-83
2022/08/19 06:47:05;;;;;;;1999.90;999.90;;;17.50;99.90;;;;;;4952249;29;20542;-82
2022/08/19 06:49:31;;;;;;;1999.90;999.90;;;17.50;99.90;;;;;;4934473;29;20059;-83
2022/08/19 06:51:58;;;;;;;1999.90;999.90;;;17.60;99.90;;;;;;4934599;29;20403;-82
2022/08/19 06:54:25;;;;;;;1999.90;999.90;;;17.50;99.90;;;;;;4950641;29;20035;-82
2022/08/19 06:56:51;;;;;;;1999.90;999.90;;;17.60;99.90;;;;;;4912785;28;1138478;-83
2022/08/19 06:59:20;;;;;;;1999.90;999.90;;;17.30;99.90;;;;;;4935167;29;20325;-83
2022/08/19 07:01:52;;;;;;;1999.90;999.90;;;17.20;99.90;;;;;;4962453;28;20027;-82
2022/08/19 07:04:21;;;;;;;1999.90;999.90;;;17.30;99.90;;;;;;4971032;28;20407;-82
2022/08/19 07:06:47;;;;;;;1999.90;999.90;;;17.30;99.90;;;;;;4951507;28;20027;-83
2022/08/19 07:09:15;;;;;;;1999.90;999.90;;;17.10;99.90;;;;;;4971077;28;20027;-83
2022/08/19 07:11:49;;;;;;;1999.90;999.90;;;17.10;99.90;;;;;;4953857;28;20045;-83
2022/08/19 07:14:17;;;;;;;1999.90;999.90;;;16.90;99.90;;;;;;4966624;28;20038;-83
2022/08/19 07:16:44;;;;;;;1999.90;999.90;;;17.00;99.90;;;;;;4968260;28;20022;-84
2022/08/19 07:19:10;;;;;;;1999.90;999.90;;;17.20;99.90;;;;;;4969807;28;20031;-83
2022/08/19 07:21:36;;;;;;;1999.90;999.90;;;17.50;99.90;;;;;;4953784;28;20106;-82
2022/08/19 07:24:01;;;;;;;1999.90;999.90;;;17.50;99.90;;;;;;4971405;28;20161;-83
2022/08/19 07:26:31;;;;;;;1999.90;999.90;;;17.60;99.90;;;;;;4937846;28;20117;-83
2022/08/19 07:28:58;;;;;;;1999.90;999.90;;;17.60;99.90;;;;;;4971255;28;20026;-83
2022/08/19 07:31:26;;;;;;;1999.90;999.90;;;17.30;99.90;;;;;;4958791;28;20043;-83
2022/08/19 07:33:55;;;;;;;1999.90;999.90;;;17.40;99.90;;;;;;4950968;29;20869;-82
2022/08/19 07:36:24;;;;;;;1999.90;999.90;;;17.50;99.90;;;;;;4934232;29;20035;-82
2022/08/19 07:38:51;;;;;;;1999.90;999.90;;;17.60;99.90;;;;;;4934156;29;20043;-83
2022/08/19 07:41:25;;;;;;;1999.90;999.90;;;17.50;99.90;;;;;;4950034;29;20031;-82
2022/08/19 07:43:51;;;;;;;1999.90;999.90;;;17.30;99.90;;;;;;4946918;29;20035;-83
2022/08/19 07:46:17;;;;;;;1999.90;999.90;;;17.50;99.90;;;;;;4933853;29;20035;-83
2022/08/19 07:48:47;;;;;;;1999.90;999.90;;;17.30;99.90;;;;;;4932343;29;20159;-82
2022/08/19 07:51:16;;;;;;;1999.90;999.90;;;17.20;99.90;;;;;;4935730;29;20050;-83
2022/08/19 07:53:44;;;;;;;1999.90;999.90;;;17.30;99.90;;;;;;4931626;29;20035;-82
2022/08/19 07:56:12;;;;;;;1999.90;999.90;;;17.50;99.90;;;;;;4949538;29;20059;-83
2022/08/19 07:58:41;;;;;;;1999.90;999.90;;;17.60;99.90;;;;;;4934266;29;20620;-83
2022/08/19 08:01:09;;;;;;;1999.90;999.90;;;17.40;99.90;;;;;;4955791;28;20845;-82
2022/08/19 08:09:11;;;;;;;1999.90;999.90;;;17.70;99.90;;;;;;4955824;28;20482;-82
2022/08/19 08:11:49;;;;;;;1999.90;999.90;;;17.50;99.90;;;;;;4970186;28;20110;-82
2022/08/19 08:14:41;;;;;;;1999.90;999.90;;;17.60;99.90;;;;;;4954052;28;20082;-82
2022/08/19 08:17:09;;;;;;;1999.90;999.90;;;17.60;99.90;;;;;;4970067;28;20150;-82
2022/08/19 08:19:35;;;;;;;1999.90;999.90;;;17.70;99.90;;;;;;4969959;28;20046;-82
2022/08/19 08:22:02;;;;;;;1999.90;999.90;;;17.80;99.90;;;;;;4968696;28;20034;-82
2022/08/19 08:24:30;;;;;;;1999.90;999.90;;;17.50;99.90;;;;;;4970603;28;20035;-83
2022/08/19 08:26:58;;;;;;;1999.90;999.90;;;17.40;99.90;;;;;;4970200;28;20023;-82
2022/08/19 08:29:25;;;;;;;1999.90;999.90;;;17.50;99.90;;;;;;4973591;28;20038;-82
2022/08/19 08:31:51;;;;;;;1999.90;999.90;;;17.50;99.90;;;;;;4942520;29;20046;-82
2022/08/19 08:34:17;;;;;;;1999.90;999.90;;;17.70;99.90;;;;;;4952829;29;20134;-82
2022/08/19 08:36:45;;;;;;;1999.90;999.90;;;17.50;99.90;;;;;;4953310;29;20590;-82
2022/08/19 08:39:14;;;;;;;1999.90;999.90;;;17.60;99.90;;;;;;4950836;29;20019;-81
2022/08/19 08:42:05;;;;;;;1999.90;999.90;;;17.70;99.90;;;;;;4962043;28;20035;-81
2022/08/19 08:44:36;;;;;;;;;;;17.70;99.90;;;;;;4976445;28;20039;-82
2022/08/19 08:47:07;;;;;;;1999.90;999.90;;;18.00;99.90;;;;;;4969446;28;20330;-82
2022/08/19 08:49:54;;;;;;;1999.90;999.90;;;17.70;99.90;;;;;;4952780;29;20054;-82
2022/08/19 08:52:30;;;;;;;1999.90;999.90;;;17.90;99.90;;;;;;4951501;29;20031;-82
2022/08/19 08:55:00;;;;;;;1999.90;999.90;;;17.80;99.90;;;;;;4936982;29;20039;-82
2022/08/19 08:57:48;;;;;;;1999.90;999.90;;;18.10;99.90;;;;;;4952646;29;20050;-82
2022/08/19 09:00:26;;;;;;;1999.90;999.90;;;18.10;99.90;;;;;;4967556;28;20399;-82
2022/08/19 09:02:53;;;;;;;1999.90;999.90;;;18.10;99.90;;;;;;4954576;28;20406;-82
2022/08/19 09:05:21;;;;;;;1999.90;999.90;;;18.00;99.90;;;;;;4973202;28;20109;-82
2022/08/19 09:08:08;;;;;;;1999.90;999.90;;;17.90;99.90;;;;;;4973046;28;20038;-82
2022/08/19 09:10:49;;;;;;;1999.90;999.90;;;18.00;99.90;;;;;;4955175;28;20042;-82
2022/08/19 09:13:31;;;;;;;1999.90;999.90;;;18.00;99.90;;;;;;4957432;28;20081;-83
2022/08/19 09:16:12;;;;;;;1999.90;999.90;;;18.10;99.90;;;;;;4971936;28;20103;-82
2022/08/19 09:18:46;;;;;;;1999.90;999.90;;;18.00;99.90;;;;;;4972081;28;20144;-83
2022/08/19 09:21:13;;;;;;;1999.90;999.90;;;18.30;99.90;;;;;;4972892;28;20022;-83
2022/08/19 09:23:39;;;;;;;1999.90;999.90;;;18.30;99.90;;;;;;4973070;28;20035;-82
2022/08/19 09:26:13;;;;;;;1999.90;999.90;;;18.30;99.90;;;;;;4973169;28;20491;-82
2022/08/19 09:28:43;;;;;;;1999.90;999.90;;;18.50;99.90;;;;;;4972723;28;20464;-82
2022/08/19 09:31:11;;;;;;;1999.90;999.90;;;18.60;99.90;;;;;;4968975;28;20071;-82
2022/08/19 09:33:37;;;;;;;1999.90;999.90;;;18.50;99.90;;;;;;4972520;28;20077;-82
2022/08/19 09:36:10;;;;;;;1999.90;999.90;;;18.60;99.90;;;;;;4971526;28;20153;-83
2022/08/19 09:38:37;;;;;;;1999.90;999.90;;;18.60;99.90;;;;;;4972095;28;20126;-82
2022/08/19 09:41:13;;;;;;;1999.90;999.90;;;18.40;99.90;;;;;;4954614;28;20061;-82
2022/08/19 09:43:40;;;;;;;1999.90;999.90;;;18.40;99.90;;;;;;4972410;28;20553;-82
2022/08/19 09:46:08;;;;;;;1999.90;999.90;;;18.50;99.90;;;;;;4972764;28;20538;-83
2022/08/19 09:48:35;;;;;;;1999.90;999.90;;;18.50;99.90;;;;;;4955363;28;20118;-81
2022/08/19 09:51:06;;;;;;;1999.90;999.90;;;18.40;99.90;;;;;;4967006;28;20026;-82
2022/08/19 09:53:32;;;;;;;1999.90;999.90;;;18.40;99.90;;;;;;4955371;28;20031;-82
2022/08/19 09:55:57;;;;;;;1999.90;999.90;;;18.50;99.90;;;;;;4953870;28;20462;-82
2022/08/19 09:58:27;;;;;;;1999.90;999.90;;;18.40;99.90;;;;;;4955054;28;20123;-82
2022/08/19 10:00:54;;;;;;;1999.90;999.90;;;18.50;99.90;;;;;;4954879;28;20057;-82
2022/08/19 10:03:19;;;;;;;1999.90;999.90;;;18.40;99.90;;;;;;4954952;28;20093;-82
2022/08/19 10:05:48;;;;;;;1999.90;999.90;;;18.40;99.90;;;;;;4971066;28;20054;-82
2022/08/19 10:08:15;;;;;;;1999.90;999.90;;;18.30;99.90;;;;;;4972576;28;20599;-83
2022/08/19 10:10:44;;;;;;;1999.90;999.90;;;18.30;99.90;;;;;;4955317;28;20034;-82
2022/08/19 10:13:10;;;;;;;1999.90;999.90;;;18.30;99.90;;;;;;4954946;28;20027;-82
2022/08/19 10:15:38;;;;;;;1999.90;999.90;;;18.30;99.90;;;;;;4969200;28;20031;-82
2022/08/19 10:18:05;;;;;;;1999.90;999.90;;;18.30;99.90;;;;;;4972137;28;20031;-82
2022/08/19 10:20:31;;;;;;;1999.90;999.90;;;18.40;99.90;;;;;;4954821;28;20035;-82
2022/08/19 10:22:57;;;;;;;1999.90;999.90;;;18.30;99.90;;;;;;4972811;28;20042;-82
2022/08/19 10:25:23;;;;;;;1999.90;999.90;;;18.30;99.90;;;;;;4972109;28;20027;-82
2022/08/19 10:27:49;;;;;;;1999.90;999.90;;;18.20;99.90;;;;;;4971771;28;20035;-82
2022/08/19 10:30:14;;;;;;;1999.90;999.90;;;18.30;99.90;;;;;;4951045;28;20045;-82
2022/08/19 10:32:40;;;;;;;1999.90;999.90;;;18.40;99.90;;;;;;4938370;28;20473;-82
2022/08/19 10:35:08;;;;;;;1999.90;999.90;;;18.40;99.90;;;;;;4954371;28;20030;-83
2022/08/19 10:37:36;;;;;;;1999.90;999.90;;;18.20;99.90;;;;;;4954935;28;20067;-83
2022/08/19 10:40:05;;;;;;;1999.90;999.90;;;18.20;99.90;;;;;;4970749;28;20031;-83
2022/08/19 10:42:31;;;;;;;1999.90;999.90;;;18.20;99.90;;;;;;4939238;28;20046;-83
2022/08/19 10:44:57;;;;;;;1999.90;999.90;;;18.20;99.90;;;;;;4954106;28;20046;-82
2022/08/19 10:47:23;;;;;;;1999.90;999.90;;;18.30;99.90;;;;;;4954318;28;20043;-82
2022/08/19 10:52:33;;;;;;;1999.90;999.90;;;17.90;99.90;;;;;;4956999;28;20057;-82
2022/08/19 10:57:49;;;;;;;1999.90;999.90;;;17.70;99.90;;;;;;4970906;28;20085;-83
2022/08/19 11:00:15;;;;;;;1999.90;999.90;;;17.80;99.90;;;;;;4953817;28;20309;-82
2022/08/19 11:02:41;;;;;;;1999.90;999.90;;;17.80;99.90;;;;;;4971471;28;20065;-82
2022/08/19 11:05:10;;;;;;;1999.90;999.90;;;17.60;99.90;;;;;;4938138;28;20027;-83
2022/08/19 11:07:38;;;;;;;1999.90;999.90;;;17.80;99.90;;;;;;4967633;28;20007;-82
2022/08/19 11:10:05;;;;;;;1999.90;999.90;;;17.60;99.90;;;;;;4977992;28;20014;-82
2022/08/19 11:12:30;;;;;;;1999.90;999.90;;;17.60;99.90;;;;;;4979032;28;20038;-82
2022/08/19 11:14:56;;;;;;;1999.90;999.90;;;17.50;99.90;;;;;;4970551;28;20644;-83
2022/08/19 11:17:23;;;;;;;1999.90;999.90;;;17.50;99.90;;;;;;4969641;28;20045;-83
2022/08/19 11:19:49;;;;;;;1999.90;999.90;;;17.50;99.90;;;;;;4954001;28;20121;-83
2022/08/19 11:22:15;;;;;;;1999.90;999.90;;;17.30;99.90;;;;;;4970874;28;20042;-83
2022/08/19 11:24:41;;;;;;;1999.90;999.90;;;17.60;99.90;;;;;;4971149;28;20106;-83
2022/08/19 11:27:09;;;;;;;1999.90;999.90;;;17.60;99.90;;;;;;4953376;28;20580;-82
2022/08/19 11:29:38;;;;;;;1999.90;999.90;;;17.60;99.90;;;;;;4968920;28;20038;-84
2022/08/19 11:32:07;;;;;;;1999.90;999.90;;;17.70;99.90;;;;;;4969345;28;20038;-83
2022/08/19 11:34:33;;;;;;;1999.90;999.90;;;17.60;99.90;;;;;;4953994;28;20042;-82
2022/08/19 11:36:59;;;;;;;1999.90;999.90;;;17.70;99.90;;;;;;4953272;28;20114;-82
2022/08/19 11:39:26;;;;;;;1999.90;999.90;;;17.60;99.90;;;;;;4937076;28;20070;-83
2022/08/19 11:41:54;;;;;;;1999.90;999.90;;;17.50;99.90;;;;;;4970599;28;20031;-83
2022/08/19 11:44:19;;;;;;;1999.90;999.90;;;17.30;99.90;;;;;;4970326;28;20074;-82
2022/08/19 11:46:46;;;;;;;1999.90;999.90;;;17.50;99.90;;;;;;4971034;28;20494;-82
2022/08/19 11:49:18;;;;;;;1999.90;999.90;;;17.40;99.90;;;;;;4962969;28;20151;-82
2022/08/19 11:51:44;;;;;;;1999.90;999.90;;;17.50;99.90;;;;;;4953342;28;20037;-83
2022/08/19 11:54:13;;;;;;;1999.90;999.90;;;17.40;99.90;;;;;;4969002;28;20118;-83
2022/08/19 11:56:39;;;;;;;1999.90;999.90;;;17.30;99.90;;;;;;4953117;28;20054;-83
2022/08/19 11:59:05;;;;;;;1999.90;999.90;;;17.40;99.90;;;;;;4968696;28;20034;-82
2022/08/19 12:01:31;;;;;;;1999.90;999.90;;;17.30;99.90;;;;;;4926450;29;20031;-83
2022/08/19 12:03:57;;;;;;;1999.90;999.90;;;17.30;99.90;;;;;;4931241;29;20469;-82
2022/08/19 12:06:29;;;;;;;1999.90;999.90;;;17.20;99.90;;;;;;4951296;29;20797;-82
2022/08/19 12:08:57;;;;;;;1999.90;999.90;;;17.30;99.90;;;;;;4933927;29;20029;-83
2022/08/19 12:11:24;;;;;;;1999.90;999.90;;;17.30;99.90;;;;;;4950942;29;20044;-82
2022/08/19 12:13:50;;;;;;;1999.90;999.90;;;17.40;99.90;;;;;;4949591;29;20023;-82
2022/08/19 12:16:23;;;;;;;1999.90;999.90;;;17.30;99.90;;;;;;4950832;29;20566;-82
2022/08/19 12:18:50;;;;;;;1999.90;999.90;;;17.50;99.90;;;;;;4945271;28;20067;-81
2022/08/19 12:21:20;;;;;;;1999.90;999.90;;;17.50;99.90;;;;;;4939846;29;20036;-81
2022/08/19 12:23:49;;;;;;;1999.90;999.90;;;17.30;99.90;;;;;;4965728;28;20031;-81